Mesquite, Nevada Weather observations

Data are for observation ending at time listed.
 Day   Time    Ave.   Ave.  Ave.  Vector   Max.   Stn.    Total    Solar   Ave.  
  of    of     Air    Rel.  Wind   Wind    Wind   Baro.  Precip.   Rad.    Soil  
Year   Day     Temp.  Hum.  Speed  Dir.    Gust   Pres.                    Temp. 
2014   (PST)    F      %     mph   deg.    mph     mb.     in.     W/m2     F   
------------------------------------------------------------------------------
 210    6:10   85.6    38    1.2    40      1.9   952.9    0.00     180    94.3
 210    6:20   87.2    36    0.8   290      1.9   953.0    0.00     218    94.2
 210    6:30   85.0    40    2.6   317      3.9   953.1    0.00     134    94.2
 210    6:40   83.8    42    1.9   307      3.4   953.2    0.00     112    94.2
 210    6:50   84.2    42    2.5   250      4.7   953.2    0.00     126    94.2
 210    7:00   84.0    42    3.4   230      5.4   953.3    0.00     129    94.3
 210    7:10   84.7    42    3.6   232      6.2   953.3    0.00     215    94.3
 210    7:20   85.4    41    4.8   228      7.4   953.4    0.00     229    94.3
 210    7:30   86.2    39    3.9   217      6.9   953.5    0.00     252    94.3
 210    7:40   86.9    38    2.8   209      6.0   953.5    0.00     165    94.3
 210    7:50   86.8    38    3.2   219      5.6   953.5    0.00     125    94.3
 210    8:00   86.7    38    3.3   204      5.5   953.5    0.00     131    94.4
 210    8:10   87.5    37    2.0   199      4.5   953.4    0.00     138    94.5
 210    8:20   89.0    34    2.7   223      5.5   953.4    0.00     471    94.5
 210    8:30   90.8    32    2.8   211      5.6   953.4    0.00     533    94.6
 210    8:40   92.6    30    2.7   205      6.1   953.4    0.00     519    94.6
 210    8:50   92.0    30    3.2   216      6.3   953.4    0.00     515    94.7
 210    9:00   92.4    30    2.4   276      4.6   953.5    0.00     545    94.8
 210    9:10   92.7    29    2.3   289      4.5   953.4    0.00     495    94.9
 210    9:20   92.5    30    3.4   277      6.4   953.4    0.00     525    95.1
 210    9:30   93.6    29    3.5   254     10.7   953.3    0.00     642    95.4
 210    9:40   94.4    28    3.1   244      7.5   953.2    0.00     566    95.7
 210    9:50   96.6    26    2.0   263      4.5   953.0    0.00     630    96.0
 210   10:00   96.4    26    3.0   212      8.0   952.9    0.00     621    96.4
 210   10:10   95.8    26    4.6   261     10.0   952.8    0.00     624    96.9
 210   10:20   94.6    27    4.2   265      9.1   952.6    0.00     635    97.4
 210   10:30   95.3    26    3.6   235      6.6   952.5    0.00     638    97.9
 210   10:40   97.8    24    2.8   202      7.1   952.4    0.00     644    98.5
 210   10:50   96.9    25    3.3   246      8.4   952.3    0.00     653    99.1
 210   11:00   96.4    25    3.5   253      7.6   952.1    0.00     660    99.6
 210   11:10   96.8    25    3.2   211      8.2   951.9    0.00     670    100.2
 210   11:20   96.8    25    3.6   274      7.4   951.7    0.00     671    100.9
 210   11:30   97.5    25    3.4   283      8.6   951.6    0.00     676    101.5
 210   11:40   97.5    24    4.9   239     12.1   951.4    0.00     675    102.1
 210   11:50   97.9    24    4.8   239     10.4   951.2    0.00     676    102.8
 210   12:00   98.7    23    5.0   261     13.6   951.1    0.00     677    103.4
 210   12:10   98.7    23    4.7   240     11.1   951.0    0.00     680    104.0
 210   12:20   99.4    23    7.3   257     14.8   950.9    0.00     686    104.6
 210   12:30   98.5    23    8.3   253     14.8   950.8    0.00     669    105.1
 210   12:40   99.1    23    8.6   254     18.6   950.6    0.00     671    105.6
 210   12:50   99.5    23    7.5   226     18.3   950.5    0.00     660    106.1
 210   13:00   99.1    23    9.2   237     16.1   950.3    0.00     651    106.6
 210   13:10   98.8    23   12.3   253     21.3   950.2    0.00     619    107.1
 210   13:20   99.4    23   10.1   241     19.9   950.1    0.00     640    107.5
 210   13:30   99.1    23   11.3   248     21.8   950.0    0.00     625    107.9
 210   13:40   99.3    23   10.4   242     19.0   949.9    0.00     612    108.3
 210   13:50   99.7    22   10.7   242     21.4   949.9    0.00     611    108.6
 210   14:00   99.6    22   10.4   242     18.8   949.7    0.00     583    108.9
 210   14:10  100.0    21   10.5   249     17.5   949.5    0.00     580    109.2
 210   14:20  100.7    20   10.1   239     17.3   949.3    0.00     568    109.5
 210   14:30  100.8    21    9.4   238     15.8   949.3    0.00     544    109.8
 210   14:40   99.9    22   10.2   265     20.2   949.2    0.00     503    110.0
 210   14:50  101.0    21    6.2   234     14.3   949.0    0.00     501    110.3
 210   15:00  100.7    21    9.0   242     16.7   949.0    0.00     502    110.5
 210   15:10  100.7    22    8.8   236     15.6   948.9    0.00     492    110.7
 210   15:20  101.2    21    7.0   229     15.4   948.8    0.00     447    110.9
 210   15:30  100.9    21    8.4   232     16.5   948.7    0.00     443    111.0
 210   15:40  101.0    22    7.4   242     16.1   948.6    0.00     421    111.2
 210   15:50  100.5    22    7.4   248     18.7   948.6    0.00     378    111.3
 210   16:00  100.2    22    8.6   257     15.8   948.4    0.00     360    111.4
 210   16:10  100.5    22    8.6   240     16.9   948.4    0.00     332    111.5
 210   16:20  100.3    22    8.5   239     14.2   948.3    0.00     307    111.5
 210   16:30  100.5    21    5.9   235     12.3   948.2    0.00     280    111.5
 210   16:40   99.8    22    7.0   247     14.3   948.1    0.00     108    111.5
 210   16:50   99.5    22    5.7   232     13.1   948.0    0.00     182    111.4
 210   17:00   99.8    21    5.4   232     10.9   947.9    0.00     181    111.3
 210   17:10   99.9    21    6.7   231     12.3   947.9    0.00     191    111.1
 210   17:20  100.2    21    5.2   220     10.0   947.9    0.00     168    110.9
 210   17:30  100.4    21    4.8   235     11.0   947.9    0.00     136    110.7
 210   17:40  100.0    21    5.0   234     10.4   947.9    0.00     116    110.5
 210   17:50   99.8    21    6.8   256     14.4   947.9    0.00      90    110.3
 210   18:00   99.3    21    7.1   254     12.6   947.9    0.00      70    110.0
 210   18:10   98.8    22    6.1   246     11.6   947.9    0.00      42    109.8
 210   18:20   98.3    22    6.1   246      9.9   948.0    0.00      25    109.5
 210   18:30   97.6    23    8.0   254     16.7   948.0    0.00      13    109.2
 210   18:40   97.3    23    6.8   255     11.4   948.0    0.00       6    108.9
 210   18:50   97.0    23    6.2   243     11.1   948.0    0.00       3    108.6
 210   19:00   96.8    23    5.3   252      9.9   948.1    0.00       3    108.2
 210   19:10   96.6    23    4.7   251      8.4   948.1    0.00       2    107.9
 210   19:20   96.5    23    4.3   234      8.3   948.3    0.00       0    107.6
 210   19:30   96.2    23    3.5   226      7.7   948.4    0.00       0    107.3
 210   19:40   95.7    24    2.7   228      6.1   948.6    0.00       1    107.0
 210   19:50   95.5    24    2.9   235      5.4   948.6    0.00       0    106.6
 210   20:00   95.3    24    3.1   230      4.6   948.7    0.00       1    106.4
 210   20:10   94.9    25    3.0   234      5.2   948.8    0.00       1    106.1
 210   20:20   94.8    25    2.4   235      3.7   948.9    0.00       1    105.8
 210   20:30   94.7    25    2.2   247      3.4   949.1    0.00       1    105.5
 210   20:40   94.4    25    1.8   201      2.9   949.1    0.00       0    105.2
 210   20:50   93.8    25    1.7   159      2.6   949.2    0.00       1    105.0
 210   21:00   93.7    25    1.6   152      2.6   949.3    0.00       1    104.8
 210   21:10   92.5    27    2.2    47      3.7   949.3    0.00       1    104.6
 210   21:20   91.8    27    2.2    35      3.2   949.3    0.00       0    104.4
 210   21:30   91.4    27    2.8    50      3.2   949.3    0.00       1    104.2
 210   21:40   90.8    27    3.3    45      4.4   949.4    0.00       1    104.0
 210   21:50   90.7    28    2.8    68      3.4   949.4    0.00       1    103.8
 210   22:00   90.6    28    2.1    45      2.9   949.5    0.00       1    103.6
 210   22:10   90.5    28    3.3     8      6.7   949.6    0.00       1    103.3
 210   22:20   91.3    27    2.8   359      5.8   949.7    0.00       1    103.2
 210   22:30   91.8    27    3.7   357      6.2   949.6    0.00       1    103.0
 210   22:40   91.7    27    5.2     3      7.5   949.6    0.00       1    102.8
 210   22:50   90.6    27    4.5   345      7.4   949.6    0.00       1    102.6
 210   23:00   89.6    29    4.7   343      8.1   949.5    0.00       1    102.4
 210   23:10   89.5    29    8.2   348     15.0   949.6    0.00       1    102.2
 210   23:20   89.6    29    8.0   348     13.9   949.6    0.00       1    102.0
 210   23:30   89.6    30    7.6   350     12.3   949.7    0.00       1    101.8
 210   23:40   89.6    30    5.5   354     11.1   949.7    0.00       1    101.7
 210   23:50   88.8    30    3.8   120      8.7   949.8    0.00       1    101.5
 211    0:00   88.0    32    2.7   118      7.6   949.8    0.00       1    101.3
 211    0:10   88.0    31    5.0    98      8.0   949.9    0.00       1    101.1
 211    0:20   88.2    31    5.2   111      8.3   949.8    0.00       1    100.9
 211    0:30   88.4    31    4.7    90      8.8   949.8    0.00       1    100.7
 211    0:40   88.6    31    3.9    21      8.4   949.8    0.00       0    100.6
 211    0:50   88.7    31    3.0    14     10.3   949.7    0.00       1    100.4
 211    1:00   89.1    30    4.3    22     10.1   949.6    0.00       1    100.3
 211    1:10   88.6    31    3.0    22      5.5   949.6    0.00       1    100.1
 211    1:20   88.5    32    3.7   332      6.6   949.6    0.00       1    100.0
 211    1:30   88.3    32    3.9   331      6.4   949.6    0.00       1    99.8
 211    1:40   87.7    33    4.4     2      8.6   949.6    0.00       1    99.7
 211    1:50   87.2    33    4.7    16      9.0   949.5    0.00       1    99.5
 211    2:00   86.6    34    2.8    62      4.9   949.6    0.00       1    99.4
 211    2:10   84.8    36    3.4    52      5.3   949.5    0.00       1    99.2
 211    2:20   84.7    37    3.3    74      4.3   949.5    0.00       1    99.1
 211    2:30   84.5    37    2.5    67      3.9   949.4    0.00       1    98.9
 211    2:40   84.5    37    1.4    41      2.3   949.3    0.00       1    98.8
 211    2:50   84.3    37    1.1   319      3.0   949.4    0.00       1    98.6
 211    3:00   84.6    36    0.4   261      1.8   949.4    0.00       1    98.5
 211    3:10   84.1    38    2.2   197      3.2   949.5    0.00       1    98.3
 211    3:20   84.3    37    0.8   219      2.3   949.6    0.00       1    98.2
 211    3:30   84.6    36    0.7   289      2.2   949.5    0.00       1    98.1
 211    3:40   84.6    37    3.5   304      7.7   949.5    0.00       1    98.0
 211    3:50   84.4    36    5.3   303      7.5   949.5    0.00       1    97.8
 211    4:00   83.9    36    3.2   319      5.6   949.6    0.00       1    97.7
 211    4:10   83.1    38    2.1   356      5.0   949.8    0.00       1    97.6
 211    4:20   82.5    38    3.8   354      6.5   949.8    0.00       1    97.4
 211    4:30   82.5    38    4.4   351      7.3   949.9    0.00       2    97.3
 211    4:40   82.5    38    4.1    37      6.8   950.1    0.00       3    97.1
 211    4:50   80.0    42    4.4    91      5.5   950.2    0.00       3    97.0
 211    5:00   79.3    43    4.8   101      5.6   950.3    0.00       7    96.9
 211    5:10   79.2    43    4.1    85      5.1   950.3    0.00      14    96.7
 211    5:20   80.4    41    4.0    90      4.8   950.4    0.00      36    96.6
 211    5:30   82.1    39    4.3    71      4.7   950.5    0.00      57    96.4
 211    5:40   83.6    37    3.3    47      4.8   950.6    0.00      79    96.3
 211    5:50   84.8    35    2.8    46      4.3   950.8    0.00     100    96.2
 211    6:00   86.4    34    2.5    49      3.4   950.8    0.00     118    96.0

Return to Mesquite, Nevada graphs page.


Western Regional Climate Center,wrcc@dri.edu